sensor_id;sensor_type;location;lat;lon;timestamp;pressure;altitude;pressure_sealevel;temperature;humidity
74578;BME280;63173;49.086;33.418;2023-05-28T00:01:06;100348.75;;;17.13;91.25
74578;BME280;63173;49.086;33.418;2023-05-28T00:03:32;100350.53;;;17.09;90.94
74578;BME280;63173;49.086;33.418;2023-05-28T00:05:58;100351.56;;;16.96;92.33
74578;BME280;63173;49.086;33.418;2023-05-28T00:08:23;100358.81;;;17.01;91.49
74578;BME280;63173;49.086;33.418;2023-05-28T00:10:49;100354.97;;;16.93;91.86
74578;BME280;63173;49.086;33.418;2023-05-28T00:13:15;100350.97;;;16.82;92.38
74578;BME280;63173;49.086;33.418;2023-05-28T00:15:43;100353.03;;;16.85;92.57
74578;BME280;63173;49.086;33.418;2023-05-28T00:18:09;100351.44;;;16.84;92.07
74578;BME280;63173;49.086;33.418;2023-05-28T00:20:37;100348.25;;;16.65;93.14
74578;BME280;63173;49.086;33.418;2023-05-28T00:23:03;100353.59;;;16.61;92.64
74578;BME280;63173;49.086;33.418;2023-05-28T00:25:28;100358.41;;;16.73;92.37
74578;BME280;63173;49.086;33.418;2023-05-28T00:27:54;100355.53;;;16.61;92.46
74578;BME280;63173;49.086;33.418;2023-05-28T00:30:19;100352.44;;;16.62;93.65
74578;BME280;63173;49.086;33.418;2023-05-28T00:32:45;100349.88;;;16.57;93.16
74578;BME280;63173;49.086;33.418;2023-05-28T00:35:10;100352.78;;;16.52;93.07
74578;BME280;63173;49.086;33.418;2023-05-28T00:37:36;100359.06;;;16.61;92.78
74578;BME280;63173;49.086;33.418;2023-05-28T00:40:02;100355.22;;;16.54;92.70
74578;BME280;63173;49.086;33.418;2023-05-28T00:42:27;100360.50;;;16.50;93.30
74578;BME280;63173;49.086;33.418;2023-05-28T00:44:53;100357.97;;;16.54;93.36
74578;BME280;63173;49.086;33.418;2023-05-28T00:47:19;100357.47;;;16.52;93.30
74578;BME280;63173;49.086;33.418;2023-05-28T00:49:44;100358.91;;;16.66;92.56
74578;BME280;63173;49.086;33.418;2023-05-28T00:52:14;100359.72;;;16.67;91.92
74578;BME280;63173;49.086;33.418;2023-05-28T00:54:39;100357.94;;;16.62;91.42
74578;BME280;63173;49.086;33.418;2023-05-28T00:57:05;100359.53;;;16.72;91.47
74578;BME280;63173;49.086;33.418;2023-05-28T00:59:31;100364.06;;;16.76;90.87
74578;BME280;63173;49.086;33.418;2023-05-28T01:01:59;100361.16;;;16.64;90.74
74578;BME280;63173;49.086;33.418;2023-05-28T01:04:25;100357.56;;;16.81;90.20
74578;BME280;63173;49.086;33.418;2023-05-28T01:06:56;100353.75;;;16.65;90.75
74578;BME280;63173;49.086;33.418;2023-05-28T01:09:25;100353.22;;;16.80;89.94
74578;BME280;63173;49.086;33.418;2023-05-28T01:11:52;100359.84;;;16.79;88.80
74578;BME280;63173;49.086;33.418;2023-05-28T01:14:19;100358.88;;;16.75;90.02
74578;BME280;63173;49.086;33.418;2023-05-28T01:16:45;100369.38;;;16.64;89.22
74578;BME280;63173;49.086;33.418;2023-05-28T01:19:16;100364.22;;;16.63;90.22
74578;BME280;63173;49.086;33.418;2023-05-28T01:21:45;100371.00;;;16.74;89.20
74578;BME280;63173;49.086;33.418;2023-05-28T01:24:11;100371.47;;;16.67;90.32
74578;BME280;63173;49.086;33.418;2023-05-28T01:26:40;100372.13;;;16.73;89.91
74578;BME280;63173;49.086;33.418;2023-05-28T01:29:18;100379.41;;;16.69;89.66
74578;BME280;63173;49.086;33.418;2023-05-28T01:31:44;100384.25;;;16.63;90.43
74578;BME280;63173;49.086;33.418;2023-05-28T01:34:11;100389.53;;;16.60;90.36
74578;BME280;63173;49.086;33.418;2023-05-28T01:36:44;100393.75;;;16.49;91.15
74578;BME280;63173;49.086;33.418;2023-05-28T01:39:16;100392.75;;;16.36;91.95
74578;BME280;63173;49.086;33.418;2023-05-28T01:41:45;100385.03;;;16.38;92.34
74578;BME280;63173;49.086;33.418;2023-05-28T01:44:13;100382.94;;;16.27;93.96
74578;BME280;63173;49.086;33.418;2023-05-28T01:46:41;100385.00;;;16.30;93.18
74578;BME280;63173;49.086;33.418;2023-05-28T01:49:09;100388.88;;;16.20;93.98
74578;BME280;63173;49.086;33.418;2023-05-28T01:51:36;100384.38;;;16.16;94.64
74578;BME280;63173;49.086;33.418;2023-05-28T01:54:01;100382.59;;;16.20;95.12
74578;BME280;63173;49.086;33.418;2023-05-28T01:56:27;100382.91;;;16.18;93.86
74578;BME280;63173;49.086;33.418;2023-05-28T01:58:52;100385.97;;;16.08;95.92
74578;BME280;63173;49.086;33.418;2023-05-28T02:03:47;100389.03;;;16.07;94.93
74578;BME280;63173;49.086;33.418;2023-05-28T02:06:12;100391.13;;;16.10;94.79
74578;BME280;63173;49.086;33.418;2023-05-28T02:08:38;100389.19;;;16.01;94.56
74578;BME280;63173;49.086;33.418;2023-05-28T02:11:04;100393.06;;;16.09;94.32
74578;BME280;63173;49.086;33.418;2023-05-28T02:13:29;100400.63;;;16.03;94.06
74578;BME280;63173;49.086;33.418;2023-05-28T02:15:55;100400.50;;;16.17;93.25
74578;BME280;63173;49.086;33.418;2023-05-28T02:18:21;100401.78;;;16.20;92.60
74578;BME280;63173;49.086;33.418;2023-05-28T02:20:46;100402.59;;;16.12;94.48
74578;BME280;63173;49.086;33.418;2023-05-28T02:23:11;100404.34;;;15.99;94.23
74578;BME280;63173;49.086;33.418;2023-05-28T02:25:37;100405.47;;;15.98;93.48
74578;BME280;63173;49.086;33.418;2023-05-28T02:28:03;100404.63;;;15.97;93.99
74578;BME280;63173;49.086;33.418;2023-05-28T02:30:28;100403.84;;;16.06;94.82
74578;BME280;63173;49.086;33.418;2023-05-28T02:32:54;100405.00;;;16.05;93.26
74578;BME280;63173;49.086;33.418;2023-05-28T02:35:20;100407.09;;;16.08;93.16
74578;BME280;63173;49.086;33.418;2023-05-28T02:37:46;100407.41;;;16.15;92.82
74578;BME280;63173;49.086;33.418;2023-05-28T02:40:13;100405.31;;;16.12;92.40
74578;BME280;63173;49.086;33.418;2023-05-28T02:42:38;100410.00;;;16.20;92.27
74578;BME280;63173;49.086;33.418;2023-05-28T02:45:04;100421.59;;;16.17;92.16
74578;BME280;63173;49.086;33.418;2023-05-28T02:47:30;100426.75;;;16.18;90.46
74578;BME280;63173;49.086;33.418;2023-05-28T02:49:55;100422.41;;;16.26;91.28
74578;BME280;63173;49.086;33.418;2023-05-28T02:52:21;100424.03;;;16.35;90.20
74578;BME280;63173;49.086;33.418;2023-05-28T02:54:46;100428.88;;;16.21;90.15
74578;BME280;63173;49.086;33.418;2023-05-28T02:57:12;100430.00;;;16.29;89.16
74578;BME280;63173;49.086;33.418;2023-05-28T02:59:37;100432.75;;;16.37;88.54
74578;BME280;63173;49.086;33.418;2023-05-28T03:02:03;100431.97;;;16.37;88.94
74578;BME280;63173;49.086;33.418;2023-05-28T03:04:28;100429.50;;;16.35;88.77
74578;BME280;63173;49.086;33.418;2023-05-28T03:06:54;100440.72;;;16.56;87.25
74578;BME280;63173;49.086;33.418;2023-05-28T03:09:20;100435.03;;;16.52;86.17
74578;BME280;63173;49.086;33.418;2023-05-28T03:11:45;100440.22;;;16.54;85.42
74578;BME280;63173;49.086;33.418;2023-05-28T03:14:11;100437.47;;;16.62;85.13
74578;BME280;63173;49.086;33.418;2023-05-28T03:16:36;100441.50;;;16.65;83.46
74578;BME280;63173;49.086;33.418;2023-05-28T03:19:02;100444.72;;;16.84;83.53
74578;BME280;63173;49.086;33.418;2023-05-28T03:21:28;100440.19;;;16.79;82.94
74578;BME280;63173;49.086;33.418;2023-05-28T03:23:53;100442.94;;;16.79;81.14
74578;BME280;63173;49.086;33.418;2023-05-28T03:26:19;100436.66;;;16.87;80.71
74578;BME280;63173;49.086;33.418;2023-05-28T03:28:44;100445.47;;;17.02;79.37
74578;BME280;63173;49.086;33.418;2023-05-28T03:31:11;100450.81;;;16.98;79.78
74578;BME280;63173;49.086;33.418;2023-05-28T03:33:38;100459.38;;;17.05;78.23
74578;BME280;63173;49.086;33.418;2023-05-28T03:36:03;100456.94;;;17.12;77.32
74578;BME280;63173;49.086;33.418;2023-05-28T03:38:29;100460.53;;;16.96;77.43
74578;BME280;63173;49.086;33.418;2023-05-28T03:40:54;100457.28;;;17.02;76.06
74578;BME280;63173;49.086;33.418;2023-05-28T03:43:20;100456.31;;;17.07;76.39
74578;BME280;63173;49.086;33.418;2023-05-28T03:45:45;100461.47;;;17.00;75.40
74578;BME280;63173;49.086;33.418;2023-05-28T03:48:11;100465.03;;;17.00;75.78
74578;BME280;63173;49.086;33.418;2023-05-28T03:50:36;100460.84;;;17.03;76.05
74578;BME280;63173;49.086;33.418;2023-05-28T03:53:02;100461.31;;;16.96;75.85
74578;BME280;63173;49.086;33.418;2023-05-28T03:55:27;100464.22;;;16.82;76.76
74578;BME280;63173;49.086;33.418;2023-05-28T03:57:53;100467.63;;;16.79;75.30
74578;BME280;63173;49.086;33.418;2023-05-28T04:00:18;100459.25;;;16.76;75.02
74578;BME280;63173;49.086;33.418;2023-05-28T04:02:44;100464.72;;;16.84;75.30
74578;BME280;63173;49.086;33.418;2023-05-28T04:05:09;100470.19;;;16.84;75.74
74578;BME280;63173;49.086;33.418;2023-05-28T04:07:35;100467.47;;;16.93;74.64
74578;BME280;63173;49.086;33.418;2023-05-28T04:10:00;100473.28;;;16.83;73.72
74578;BME280;63173;49.086;33.418;2023-05-28T04:12:26;100477.97;;;16.91;74.05
74578;BME280;63173;49.086;33.418;2023-05-28T04:14:51;100470.88;;;16.73;74.32
74578;BME280;63173;49.086;33.418;2023-05-28T04:17:17;100473.13;;;16.88;74.61
74578;BME280;63173;49.086;33.418;2023-05-28T04:19:44;100472.97;;;16.76;74.19
74578;BME280;63173;49.086;33.418;2023-05-28T04:22:09;100475.84;;;16.62;74.25
74578;BME280;63173;49.086;33.418;2023-05-28T04:24:35;100486.69;;;16.76;73.72
74578;BME280;63173;49.086;33.418;2023-05-28T04:27:00;100483.78;;;16.72;73.79
74578;BME280;63173;49.086;33.418;2023-05-28T04:29:26;100485.84;;;16.75;72.89
74578;BME280;63173;49.086;33.418;2023-05-28T04:31:55;100488.91;;;16.82;73.08
74578;BME280;63173;49.086;33.418;2023-05-28T04:34:21;100490.03;;;16.90;73.26
74578;BME280;63173;49.086;33.418;2023-05-28T04:36:46;100489.75;;;16.91;72.62
74578;BME280;63173;49.086;33.418;2023-05-28T04:39:14;100502.81;;;17.03;73.36
74578;BME280;63173;49.086;33.418;2023-05-28T04:41:40;100501.66;;;17.04;74.58
74578;BME280;63173;49.086;33.418;2023-05-28T04:44:05;100500.38;;;17.02;72.88
74578;BME280;63173;49.086;33.418;2023-05-28T04:46:31;100505.88;;;16.93;72.82
74578;BME280;63173;49.086;33.418;2023-05-28T04:48:58;100504.59;;;16.82;72.46
74578;BME280;63173;49.086;33.418;2023-05-28T04:51:23;100506.66;;;17.02;72.38
74578;BME280;63173;49.086;33.418;2023-05-28T04:53:49;100516.19;;;16.96;72.28
74578;BME280;63173;49.086;33.418;2023-05-28T04:56:15;100508.09;;;17.17;72.09
74578;BME280;63173;49.086;33.418;2023-05-28T04:58:41;100507.16;;;17.04;72.60
74578;BME280;63173;49.086;33.418;2023-05-28T05:01:07;100508.28;;;17.12;72.39
74578;BME280;63173;49.086;33.418;2023-05-28T05:03:32;100507.50;;;17.03;72.39
74578;BME280;63173;49.086;33.418;2023-05-28T05:05:58;100504.72;;;17.20;72.26
74578;BME280;63173;49.086;33.418;2023-05-28T05:08:23;100517.13;;;17.34;71.65
74578;BME280;63173;49.086;33.418;2023-05-28T05:10:48;100507.59;;;17.32;72.54
74578;BME280;63173;49.086;33.418;2023-05-28T05:13:14;100505.84;;;17.27;71.32
74578;BME280;63173;49.086;33.418;2023-05-28T05:15:40;100510.03;;;17.33;71.77
74578;BME280;63173;49.086;33.418;2023-05-28T05:18:05;100513.56;;;17.34;71.83
74578;BME280;63173;49.086;33.418;2023-05-28T05:20:31;100517.63;;;17.28;71.45
74578;BME280;63173;49.086;33.418;2023-05-28T05:22:56;100520.69;;;17.26;72.47
74578;BME280;63173;49.086;33.418;2023-05-28T05:25:22;100529.72;;;17.27;72.33
74578;BME280;63173;49.086;33.418;2023-05-28T05:27:49;100534.09;;;17.19;71.87
74578;BME280;63173;49.086;33.418;2023-05-28T05:30:15;100529.56;;;17.15;72.88
74578;BME280;63173;49.086;33.418;2023-05-28T05:32:41;100527.63;;;17.32;72.38
74578;BME280;63173;49.086;33.418;2023-05-28T05:35:06;100525.50;;;17.46;72.15
74578;BME280;63173;49.086;33.418;2023-05-28T05:37:32;100522.13;;;17.32;72.34
74578;BME280;63173;49.086;33.418;2023-05-28T05:39:57;100527.28;;;17.59;72.01
74578;BME280;63173;49.086;33.418;2023-05-28T05:42:23;100525.31;;;17.68;71.98
74578;BME280;63173;49.086;33.418;2023-05-28T05:44:48;100532.63;;;17.56;71.44
74578;BME280;63173;49.086;33.418;2023-05-28T05:47:14;100540.38;;;17.54;71.84
74578;BME280;63173;49.086;33.418;2023-05-28T05:49:39;100540.38;;;17.54;71.36
74578;BME280;63173;49.086;33.418;2023-05-28T05:52:05;100541.84;;;17.51;70.84
74578;BME280;63173;49.086;33.418;2023-05-28T05:54:30;100541.50;;;17.44;71.17
74578;BME280;63173;49.086;33.418;2023-05-28T05:56:56;100549.75;;;17.44;71.99
74578;BME280;63173;49.086;33.418;2023-05-28T05:59:21;100545.03;;;17.62;71.05
74578;BME280;63173;49.086;33.418;2023-05-28T06:01:47;100547.91;;;17.74;71.27
74578;BME280;63173;49.086;33.418;2023-05-28T06:04:13;100552.50;;;17.53;71.20
74578;BME280;63173;49.086;33.418;2023-05-28T06:06:38;100545.25;;;17.48;71.67
74578;BME280;63173;49.086;33.418;2023-05-28T06:09:04;100551.34;;;17.45;71.09
74578;BME280;63173;49.086;33.418;2023-05-28T06:11:30;100546.50;;;17.51;71.09
74578;BME280;63173;49.086;33.418;2023-05-28T06:13:55;100551.53;;;17.40;71.41
74578;BME280;63173;49.086;33.418;2023-05-28T06:16:21;100552.34;;;17.32;71.46
74578;BME280;63173;49.086;33.418;2023-05-28T06:18:47;100554.41;;;17.44;71.18
74578;BME280;63173;49.086;33.418;2023-05-28T06:21:12;100555.88;;;17.41;71.93
74578;BME280;63173;49.086;33.418;2023-05-28T06:23:38;100547.31;;;17.51;71.38
74578;BME280;63173;49.086;33.418;2023-05-28T06:26:04;100555.22;;;17.61;71.23
74578;BME280;63173;49.086;33.418;2023-05-28T06:28:30;100551.34;;;17.62;72.00
74578;BME280;63173;49.086;33.418;2023-05-28T06:30:55;100552.97;;;17.63;71.72
74578;BME280;63173;49.086;33.418;2023-05-28T06:33:21;100541.50;;;17.53;72.06
74578;BME280;63173;49.086;33.418;2023-05-28T06:35:47;100551.94;;;17.76;71.67
74578;BME280;63173;49.086;33.418;2023-05-28T06:38:12;100552.25;;;17.83;71.11
74578;BME280;63173;49.086;33.418;2023-05-28T06:40:38;100548.72;;;17.66;71.39
74578;BME280;63173;49.086;33.418;2023-05-28T06:43:03;100544.19;;;17.78;71.38
74578;BME280;63173;49.086;33.418;2023-05-28T06:45:29;100545.78;;;17.88;71.04
74578;BME280;63173;49.086;33.418;2023-05-28T06:47:54;100536.28;;;17.68;71.15
74578;BME280;63173;49.086;33.418;2023-05-28T06:50:20;100535.56;;;17.88;71.14
74578;BME280;63173;49.086;33.418;2023-05-28T06:52:45;100534.94;;;17.92;71.28
74578;BME280;63173;49.086;33.418;2023-05-28T06:55:12;100529.28;;;18.17;70.75
74578;BME280;63173;49.086;33.418;2023-05-28T06:57:38;100524.94;;;18.16;70.13
74578;BME280;63173;49.086;33.418;2023-05-28T07:00:04;100521.09;;;18.38;70.12
74578;BME280;63173;49.086;33.418;2023-05-28T07:02:43;100519.41;;;18.54;69.73
74578;BME280;63173;49.086;33.418;2023-05-28T07:05:09;100524.94;;;18.74;69.94
74578;BME280;63173;49.086;33.418;2023-05-28T07:07:34;100517.75;;;18.82;68.47
74578;BME280;63173;49.086;33.418;2023-05-28T07:10:00;100518.19;;;19.05;68.41
74578;BME280;63173;49.086;33.418;2023-05-28T07:12:26;100525.41;;;19.50;67.15
74578;BME280;63173;49.086;33.418;2023-05-28T07:14:51;100527.50;;;19.65;67.56
74578;BME280;63173;49.086;33.418;2023-05-28T07:17:17;100516.81;;;19.76;68.39
74578;BME280;63173;49.086;33.418;2023-05-28T07:19:42;100525.00;;;19.85;66.96
74578;BME280;63173;49.086;33.418;2023-05-28T07:22:08;100521.25;;;20.13;67.04
74578;BME280;63173;49.086;33.418;2023-05-28T07:24:33;100522.50;;;20.04;67.68
74578;BME280;63173;49.086;33.418;2023-05-28T07:26:59;100529.72;;;20.08;66.82
74578;BME280;63173;49.086;33.418;2023-05-28T07:29:26;100530.22;;;20.22;66.71
74578;BME280;63173;49.086;33.418;2023-05-28T07:31:52;100530.00;;;20.27;64.86
74578;BME280;63173;49.086;33.418;2023-05-28T07:34:17;100516.28;;;20.55;63.86
74578;BME280;63173;49.086;33.418;2023-05-28T07:36:43;100520.13;;;20.78;62.95
74578;BME280;63173;49.086;33.418;2023-05-28T07:39:08;100530.38;;;20.78;62.84
74578;BME280;63173;49.086;33.418;2023-05-28T07:41:35;100531.00;;;20.47;64.74
74578;BME280;63173;49.086;33.418;2023-05-28T07:44:01;100532.75;;;20.39;64.72
74578;BME280;63173;49.086;33.418;2023-05-28T07:46:26;100525.00;;;20.69;64.85
74578;BME280;63173;49.086;33.418;2023-05-28T07:48:52;100529.72;;;21.08;62.77
74578;BME280;63173;49.086;33.418;2023-05-28T07:51:17;100527.75;;;21.21;64.40
74578;BME280;63173;49.086;33.418;2023-05-28T07:53:43;100522.50;;;21.31;63.80
74578;BME280;63173;49.086;33.418;2023-05-28T07:56:08;100522.66;;;21.23;64.15
74578;BME280;63173;49.086;33.418;2023-05-28T07:58:35;100523.66;;;21.03;62.55
74578;BME280;63173;49.086;33.418;2023-05-28T08:01:01;100520.22;;;21.49;62.03
74578;BME280;63173;49.086;33.418;2023-05-28T08:03:26;100517.84;;;21.79;61.85
74578;BME280;63173;49.086;33.418;2023-05-28T08:05:53;100514.00;;;21.68;59.92
74578;BME280;63173;49.086;33.418;2023-05-28T08:08:19;100512.59;;;22.05;61.49
74578;BME280;63173;49.086;33.418;2023-05-28T08:10:44;100518.25;;;22.08;60.57
74578;BME280;63173;49.086;33.418;2023-05-28T08:13:10;100513.03;;;22.22;60.37
74578;BME280;63173;49.086;33.418;2023-05-28T08:15:39;100518.50;;;22.03;60.92
74578;BME280;63173;49.086;33.418;2023-05-28T08:18:04;100514.22;;;22.21;60.87
74578;BME280;63173;49.086;33.418;2023-05-28T08:20:30;100524.34;;;22.48;61.34
74578;BME280;63173;49.086;33.418;2023-05-28T08:22:55;100519.38;;;22.23;61.92
74578;BME280;63173;49.086;33.418;2023-05-28T08:25:21;100523.56;;;22.32;61.91
74578;BME280;63173;49.086;33.418;2023-05-28T08:27:46;100527.38;;;22.59;58.87
74578;BME280;63173;49.086;33.418;2023-05-28T08:30:12;100524.84;;;22.19;57.87
74578;BME280;63173;49.086;33.418;2023-05-28T08:32:38;100531.41;;;22.46;58.96
74578;BME280;63173;49.086;33.418;2023-05-28T08:35:03;100537.03;;;22.65;59.94
74578;BME280;63173;49.086;33.418;2023-05-28T08:37:29;100532.09;;;22.93;59.73
74578;BME280;63173;49.086;33.418;2023-05-28T08:39:54;100539.47;;;23.24;58.70
74578;BME280;63173;49.086;33.418;2023-05-28T08:42:20;100533.91;;;22.86;58.81
74578;BME280;63173;49.086;33.418;2023-05-28T08:44:46;100541.84;;;22.37;61.19
74578;BME280;63173;49.086;33.418;2023-05-28T08:47:12;100541.31;;;22.31;61.11
74578;BME280;63173;49.086;33.418;2023-05-28T08:49:41;100538.06;;;22.76;61.22
74578;BME280;63173;49.086;33.418;2023-05-28T08:52:08;100537.41;;;22.32;59.50
74578;BME280;63173;49.086;33.418;2023-05-28T08:54:37;100542.06;;;22.13;60.83
74578;BME280;63173;49.086;33.418;2023-05-28T08:57:03;100546.91;;;21.73;63.41
74578;BME280;63173;49.086;33.418;2023-05-28T08:59:29;100538.22;;;22.17;62.29
74578;BME280;63173;49.086;33.418;2023-05-28T09:01:55;100538.75;;;22.38;61.63
74578;BME280;63173;49.086;33.418;2023-05-28T09:04:21;100539.78;;;22.65;60.32
74578;BME280;63173;49.086;33.418;2023-05-28T09:06:48;100537.47;;;23.24;59.12
74578;BME280;63173;49.086;33.418;2023-05-28T09:09:14;100540.13;;;23.17;59.33
74578;BME280;63173;49.086;33.418;2023-05-28T09:11:40;100534.72;;;23.24;58.24
74578;BME280;63173;49.086;33.418;2023-05-28T09:14:10;100538.28;;;23.06;60.57
74578;BME280;63173;49.086;33.418;2023-05-28T09:16:40;100536.91;;;23.54;56.82
74578;BME280;63173;49.086;33.418;2023-05-28T09:19:05;100540.72;;;23.46;56.89
74578;BME280;63173;49.086;33.418;2023-05-28T09:21:31;100531.69;;;23.49;55.91
74578;BME280;63173;49.086;33.418;2023-05-28T09:24:01;100525.56;;;23.85;54.81
74578;BME280;63173;49.086;33.418;2023-05-28T09:26:30;100526.94;;;23.94;54.64
74578;BME280;63173;49.086;33.418;2023-05-28T09:28:56;100523.44;;;23.97;55.78
74578;BME280;63173;49.086;33.418;2023-05-28T09:31:32;100527.28;;;24.38;53.52
74578;BME280;63173;49.086;33.418;2023-05-28T09:33:59;100524.31;;;24.24;53.86
74578;BME280;63173;49.086;33.418;2023-05-28T09:36:26;100518.16;;;24.64;52.45
74578;BME280;63173;49.086;33.418;2023-05-28T09:38:51;100511.78;;;24.63;52.20
74578;BME280;63173;49.086;33.418;2023-05-28T09:41:21;100515.34;;;24.60;52.51
74578;BME280;63173;49.086;33.418;2023-05-28T09:44:02;100516.03;;;24.27;52.46
74578;BME280;63173;49.086;33.418;2023-05-28T09:46:29;100530.50;;;24.40;52.45
74578;BME280;63173;49.086;33.418;2023-05-28T09:48:54;100515.41;;;23.92;52.39
74578;BME280;63173;49.086;33.418;2023-05-28T09:51:20;100521.25;;;24.06;51.58
74578;BME280;63173;49.086;33.418;2023-05-28T09:53:49;100515.06;;;23.94;49.02
74578;BME280;63173;49.086;33.418;2023-05-28T09:56:18;100518.31;;;24.74;47.78
74578;BME280;63173;49.086;33.418;2023-05-28T09:58:46;100513.56;;;25.04;46.40
74578;BME280;63173;49.086;33.418;2023-05-28T10:01:18;100517.16;;;24.75;46.56
74578;BME280;63173;49.086;33.418;2023-05-28T10:04:08;100516.63;;;24.96;44.30
74578;BME280;63173;49.086;33.418;2023-05-28T10:06:35;100504.88;;;25.39;44.59
74578;BME280;63173;49.086;33.418;2023-05-28T10:09:03;100506.81;;;25.72;44.51
74578;BME280;63173;49.086;33.418;2023-05-28T10:11:41;100516.03;;;25.43;44.30
74578;BME280;63173;49.086;33.418;2023-05-28T10:14:08;100507.56;;;25.72;43.83
74578;BME280;63173;49.086;33.418;2023-05-28T10:16:34;100507.75;;;25.16;43.94
74578;BME280;63173;49.086;33.418;2023-05-28T10:19:01;100506.63;;;25.98;42.15
74578;BME280;63173;49.086;33.418;2023-05-28T10:21:27;100497.19;;;26.06;42.30
74578;BME280;63173;49.086;33.418;2023-05-28T10:23:53;100504.09;;;25.42;42.66
74578;BME280;63173;49.086;33.418;2023-05-28T10:26:18;100497.66;;;25.38;42.54
74578;BME280;63173;49.086;33.418;2023-05-28T10:28:44;100498.22;;;25.47;43.30
74578;BME280;63173;49.086;33.418;2023-05-28T10:31:10;100493.44;;;26.39;41.78
74578;BME280;63173;49.086;33.418;2023-05-28T10:33:45;100503.19;;;25.35;42.25
74578;BME280;63173;49.086;33.418;2023-05-28T10:36:14;100498.72;;;25.60;42.00
74578;BME280;63173;49.086;33.418;2023-05-28T10:38:45;100503.53;;;25.66;41.43
74578;BME280;63173;49.086;33.418;2023-05-28T10:41:17;100504.78;;;25.02;42.53
74578;BME280;63173;49.086;33.418;2023-05-28T10:43:45;100500.91;;;25.40;42.23
74578;BME280;63173;49.086;33.418;2023-05-28T10:46:17;100496.03;;;25.70;42.21
74578;BME280;63173;49.086;33.418;2023-05-28T10:51:51;100488.94;;;26.81;38.99
74578;BME280;63173;49.086;33.418;2023-05-28T10:59:43;100487.34;;;26.19;39.47
74578;BME280;63173;49.086;33.418;2023-05-28T11:02:10;100479.22;;;25.56;40.10
74578;BME280;63173;49.086;33.418;2023-05-28T11:04:35;100483.56;;;25.97;38.89
74578;BME280;63173;49.086;33.418;2023-05-28T11:07:02;100481.19;;;26.57;39.33
74578;BME280;63173;49.086;33.418;2023-05-28T11:09:27;100482.56;;;26.81;37.98
74578;BME280;63173;49.086;33.418;2023-05-28T11:11:57;100484.41;;;27.49;37.80
74578;BME280;63173;49.086;33.418;2023-05-28T11:14:24;100481.19;;;26.57;38.61
74578;BME280;63173;49.086;33.418;2023-05-28T11:16:49;100486.00;;;26.60;38.46
74578;BME280;63173;49.086;33.418;2023-05-28T11:19:15;100473.50;;;27.09;38.03
74578;BME280;63173;49.086;33.418;2023-05-28T11:21:53;100470.44;;;27.52;36.34
74578;BME280;63173;49.086;33.418;2023-05-28T11:24:19;100478.09;;;28.08;34.66
74578;BME280;63173;49.086;33.418;2023-05-28T11:26:44;100466.91;;;28.15;35.17
74578;BME280;63173;49.086;33.418;2023-05-28T11:29:12;100471.28;;;27.74;36.93
74578;BME280;63173;49.086;33.418;2023-05-28T11:31:39;100469.63;;;27.48;37.15
74578;BME280;63173;49.086;33.418;2023-05-28T11:34:05;100472.88;;;27.89;38.16
74578;BME280;63173;49.086;33.418;2023-05-28T11:36:30;100459.19;;;27.17;38.11
74578;BME280;63173;49.086;33.418;2023-05-28T11:39:03;100467.25;;;26.54;38.20
74578;BME280;63173;49.086;33.418;2023-05-28T11:41:29;100469.63;;;27.38;36.92
74578;BME280;63173;49.086;33.418;2023-05-28T11:43:55;100476.47;;;27.89;35.79
74578;BME280;63173;49.086;33.418;2023-05-28T11:46:24;100471.28;;;27.77;36.26
74578;BME280;63173;49.086;33.418;2023-05-28T11:48:50;100472.03;;;28.52;34.99
74578;BME280;63173;49.086;33.418;2023-05-28T11:51:18;100470.88;;;28.21;35.21
74578;BME280;63173;49.086;33.418;2023-05-28T11:53:46;100465.00;;;26.70;37.98
74578;BME280;63173;49.086;33.418;2023-05-28T11:56:12;100475.22;;;26.01;38.64
74578;BME280;63173;49.086;33.418;2023-05-28T11:58:43;100474.03;;;25.55;40.60
74578;BME280;63173;49.086;33.418;2023-05-28T12:01:13;100470.31;;;25.40;40.36
74578;BME280;63173;49.086;33.418;2023-05-28T12:03:39;100469.91;;;25.82;38.82
74578;BME280;63173;49.086;33.418;2023-05-28T12:06:05;100469.84;;;26.90;36.97
74578;BME280;63173;49.086;33.418;2023-05-28T12:08:30;100464.50;;;27.89;34.42
74578;BME280;63173;49.086;33.418;2023-05-28T12:11:00;100466.84;;;27.48;34.49
74578;BME280;63173;49.086;33.418;2023-05-28T12:13:34;100472.06;;;28.24;34.39
74578;BME280;63173;49.086;33.418;2023-05-28T12:16:07;100468.72;;;28.92;33.19
74578;BME280;63173;49.086;33.418;2023-05-28T12:18:32;100464.84;;;28.65;32.58
74578;BME280;63173;49.086;33.418;2023-05-28T12:20:58;100476.09;;;28.02;33.50
74578;BME280;63173;49.086;33.418;2023-05-28T12:23:24;100474.47;;;27.79;34.06
74578;BME280;63173;49.086;33.418;2023-05-28T12:25:49;100477.69;;;28.10;32.78
74578;BME280;63173;49.086;33.418;2023-05-28T12:28:17;100472.88;;;27.89;33.02
74578;BME280;63173;49.086;33.418;2023-05-28T12:30:43;100469.66;;;28.57;32.32
74578;BME280;63173;49.086;33.418;2023-05-28T12:33:10;100470.22;;;29.07;32.95
74578;BME280;63173;49.086;33.418;2023-05-28T12:35:35;100467.53;;;28.93;31.74
74578;BME280;63173;49.086;33.418;2023-05-28T12:38:01;100464.06;;;28.40;32.54
74578;BME280;63173;49.086;33.418;2023-05-28T12:40:27;100466.13;;;28.01;33.65
74578;BME280;63173;49.086;33.418;2023-05-28T12:42:53;100463.56;;;26.32;36.19
74578;BME280;63173;49.086;33.418;2023-05-28T12:45:18;100465.28;;;27.58;34.57
74578;BME280;63173;49.086;33.418;2023-05-28T12:47:44;100464.47;;;27.43;35.03